sensor_id;sensor_type;location;lat;lon;timestamp;P1;durP1;ratioP1;P2;durP2;ratioP2
37477;SDS011;23334;54.316;10.182;2023-03-13T00:01:56;29.20;;;6.47;;
37477;SDS011;23334;54.316;10.182;2023-03-13T00:04:21;31.63;;;6.73;;
37477;SDS011;23334;54.316;10.182;2023-03-13T00:06:47;25.40;;;6.00;;
37477;SDS011;23334;54.316;10.182;2023-03-13T00:09:13;16.13;;;5.60;;
37477;SDS011;23334;54.316;10.182;2023-03-13T00:11:40;36.57;;;7.47;;
37477;SDS011;23334;54.316;10.182;2023-03-13T00:14:06;30.93;;;5.70;;
37477;SDS011;23334;54.316;10.182;2023-03-13T00:16:32;32.60;;;6.97;;
37477;SDS011;23334;54.316;10.182;2023-03-13T00:18:59;35.47;;;6.40;;
37477;SDS011;23334;54.316;10.182;2023-03-13T00:21:25;27.57;;;5.70;;
37477;SDS011;23334;54.316;10.182;2023-03-13T00:23:53;29.87;;;4.97;;
37477;SDS011;23334;54.316;10.182;2023-03-13T00:26:23;22.40;;;4.93;;
37477;SDS011;23334;54.316;10.182;2023-03-13T00:28:50;31.33;;;5.77;;
37477;SDS011;23334;54.316;10.182;2023-03-13T00:31:18;36.40;;;6.40;;
37477;SDS011;23334;54.316;10.182;2023-03-13T00:33:56;25.93;;;5.70;;
37477;SDS011;23334;54.316;10.182;2023-03-13T00:36:27;27.10;;;4.97;;
37477;SDS011;23334;54.316;10.182;2023-03-13T00:38:54;39.03;;;6.10;;
37477;SDS011;23334;54.316;10.182;2023-03-13T00:41:21;17.43;;;4.80;;
37477;SDS011;23334;54.316;10.182;2023-03-13T00:43:48;26.77;;;5.80;;
37477;SDS011;23334;54.316;10.182;2023-03-13T00:46:16;30.63;;;7.10;;
37477;SDS011;23334;54.316;10.182;2023-03-13T00:48:44;19.87;;;4.93;;
37477;SDS011;23334;54.316;10.182;2023-03-13T00:51:10;31.97;;;6.83;;
37477;SDS011;23334;54.316;10.182;2023-03-13T00:53:35;16.30;;;5.70;;
37477;SDS011;23334;54.316;10.182;2023-03-13T00:56:03;24.57;;;7.47;;
37477;SDS011;23334;54.316;10.182;2023-03-13T00:58:29;27.10;;;6.17;;
37477;SDS011;23334;54.316;10.182;2023-03-13T01:01:02;23.67;;;6.07;;
37477;SDS011;23334;54.316;10.182;2023-03-13T01:03:34;38.70;;;6.30;;
37477;SDS011;23334;54.316;10.182;2023-03-13T01:06:01;26.67;;;6.60;;
37477;SDS011;23334;54.316;10.182;2023-03-13T01:08:28;19.60;;;5.70;;
37477;SDS011;23334;54.316;10.182;2023-03-13T01:11:04;20.10;;;6.73;;
37477;SDS011;23334;54.316;10.182;2023-03-13T01:13:31;25.53;;;6.53;;
37477;SDS011;23334;54.316;10.182;2023-03-13T01:16:01;26.80;;;6.50;;
37477;SDS011;23334;54.316;10.182;2023-03-13T01:18:31;24.13;;;6.97;;
37477;SDS011;23334;54.316;10.182;2023-03-13T01:20:58;30.57;;;7.20;;
37477;SDS011;23334;54.316;10.182;2023-03-13T01:23:24;26.70;;;7.40;;
37477;SDS011;23334;54.316;10.182;2023-03-13T01:25:50;32.87;;;7.00;;
37477;SDS011;23334;54.316;10.182;2023-03-13T01:28:15;30.10;;;6.73;;
37477;SDS011;23334;54.316;10.182;2023-03-13T01:30:41;32.23;;;6.97;;
37477;SDS011;23334;54.316;10.182;2023-03-13T01:33:06;22.80;;;6.73;;
37477;SDS011;23334;54.316;10.182;2023-03-13T01:35:32;23.20;;;7.43;;
37477;SDS011;23334;54.316;10.182;2023-03-13T01:37:57;24.90;;;6.50;;
37477;SDS011;23334;54.316;10.182;2023-03-13T01:40:23;28.27;;;6.20;;
37477;SDS011;23334;54.316;10.182;2023-03-13T01:42:50;28.30;;;6.33;;
37477;SDS011;23334;54.316;10.182;2023-03-13T01:48:21;19.23;;;6.73;;
37477;SDS011;23334;54.316;10.182;2023-03-13T01:50:54;26.57;;;6.10;;
37477;SDS011;23334;54.316;10.182;2023-03-13T01:53:23;24.03;;;6.80;;
37477;SDS011;23334;54.316;10.182;2023-03-13T01:55:50;28.07;;;6.27;;
37477;SDS011;23334;54.316;10.182;2023-03-13T01:58:18;33.93;;;6.67;;
37477;SDS011;23334;54.316;10.182;2023-03-13T02:00:43;28.87;;;5.97;;
37477;SDS011;23334;54.316;10.182;2023-03-13T02:03:11;22.70;;;6.63;;
37477;SDS011;23334;54.316;10.182;2023-03-13T02:05:40;20.40;;;5.63;;
37477;SDS011;23334;54.316;10.182;2023-03-13T02:08:13;21.23;;;6.03;;
37477;SDS011;23334;54.316;10.182;2023-03-13T02:10:45;30.53;;;6.47;;
37477;SDS011;23334;54.316;10.182;2023-03-13T02:13:15;26.93;;;6.57;;
37477;SDS011;23334;54.316;10.182;2023-03-13T02:15:42;18.67;;;5.20;;
37477;SDS011;23334;54.316;10.182;2023-03-13T02:18:09;24.03;;;6.43;;
37477;SDS011;23334;54.316;10.182;2023-03-13T02:20:35;24.80;;;6.10;;
37477;SDS011;23334;54.316;10.182;2023-03-13T02:23:06;22.23;;;6.00;;
37477;SDS011;23334;54.316;10.182;2023-03-13T02:25:47;30.53;;;5.30;;
37477;SDS011;23334;54.316;10.182;2023-03-13T02:28:18;15.83;;;6.07;;
37477;SDS011;23334;54.316;10.182;2023-03-13T02:30:54;28.67;;;5.57;;
37477;SDS011;23334;54.316;10.182;2023-03-13T02:33:20;18.03;;;4.90;;
37477;SDS011;23334;54.316;10.182;2023-03-13T02:35:50;18.33;;;5.63;;
37477;SDS011;23334;54.316;10.182;2023-03-13T02:38:19;27.50;;;5.20;;
37477;SDS011;23334;54.316;10.182;2023-03-13T02:40:47;18.70;;;5.83;;
37477;SDS011;23334;54.316;10.182;2023-03-13T02:43:16;27.63;;;6.03;;
37477;SDS011;23334;54.316;10.182;2023-03-13T02:46:03;22.17;;;5.53;;
37477;SDS011;23334;54.316;10.182;2023-03-13T02:48:44;16.87;;;5.10;;
37477;SDS011;23334;54.316;10.182;2023-03-13T02:51:54;18.53;;;5.97;;
37477;SDS011;23334;54.316;10.182;2023-03-13T02:54:05;21.13;;;6.63;;
37477;SDS011;23334;54.316;10.182;2023-03-13T02:56:35;22.37;;;5.63;;
37477;SDS011;23334;54.316;10.182;2023-03-13T02:59:03;15.83;;;5.93;;
37477;SDS011;23334;54.316;10.182;2023-03-13T03:01:28;17.80;;;5.80;;
37477;SDS011;23334;54.316;10.182;2023-03-13T03:03:54;23.10;;;7.40;;
37477;SDS011;23334;54.316;10.182;2023-03-13T03:06:19;35.27;;;7.57;;
37477;SDS011;23334;54.316;10.182;2023-03-13T03:08:45;28.70;;;7.80;;
37477;SDS011;23334;54.316;10.182;2023-03-13T03:11:12;25.10;;;6.33;;
37477;SDS011;23334;54.316;10.182;2023-03-13T03:13:37;22.50;;;8.10;;
37477;SDS011;23334;54.316;10.182;2023-03-13T03:16:07;28.63;;;7.77;;
37477;SDS011;23334;54.316;10.182;2023-03-13T03:18:36;24.97;;;8.77;;
37477;SDS011;23334;54.316;10.182;2023-03-13T03:21:02;17.30;;;8.03;;
37477;SDS011;23334;54.316;10.182;2023-03-13T03:23:30;30.03;;;8.10;;
37477;SDS011;23334;54.316;10.182;2023-03-13T03:25:58;40.77;;;9.47;;
37477;SDS011;23334;54.316;10.182;2023-03-13T03:28:24;26.77;;;9.40;;
37477;SDS011;23334;54.316;10.182;2023-03-13T03:30:50;23.33;;;8.77;;
37477;SDS011;23334;54.316;10.182;2023-03-13T03:33:18;23.77;;;9.60;;
37477;SDS011;23334;54.316;10.182;2023-03-13T03:35:46;31.67;;;10.80;;
37477;SDS011;23334;54.316;10.182;2023-03-13T03:38:14;17.60;;;9.00;;
37477;SDS011;23334;54.316;10.182;2023-03-13T03:40:39;24.20;;;9.80;;
37477;SDS011;23334;54.316;10.182;2023-03-13T03:43:05;27.77;;;9.80;;
37477;SDS011;23334;54.316;10.182;2023-03-13T03:45:31;31.00;;;8.97;;
37477;SDS011;23334;54.316;10.182;2023-03-13T03:47:56;35.37;;;11.27;;
37477;SDS011;23334;54.316;10.182;2023-03-13T03:50:25;34.50;;;10.13;;
37477;SDS011;23334;54.316;10.182;2023-03-13T03:52:51;20.77;;;8.43;;
37477;SDS011;23334;54.316;10.182;2023-03-13T03:55:17;27.73;;;8.40;;
37477;SDS011;23334;54.316;10.182;2023-03-13T03:57:43;30.13;;;10.30;;
37477;SDS011;23334;54.316;10.182;2023-03-13T04:00:09;26.97;;;9.03;;
37477;SDS011;23334;54.316;10.182;2023-03-13T04:02:36;37.50;;;8.17;;
37477;SDS011;23334;54.316;10.182;2023-03-13T04:05:02;22.47;;;8.17;;
37477;SDS011;23334;54.316;10.182;2023-03-13T04:07:28;31.03;;;8.60;;
37477;SDS011;23334;54.316;10.182;2023-03-13T04:09:54;17.53;;;8.47;;
37477;SDS011;23334;54.316;10.182;2023-03-13T04:12:20;36.37;;;7.77;;
37477;SDS011;23334;54.316;10.182;2023-03-13T04:14:45;32.00;;;8.60;;
37477;SDS011;23334;54.316;10.182;2023-03-13T04:17:11;19.53;;;6.97;;
37477;SDS011;23334;54.316;10.182;2023-03-13T04:19:36;19.63;;;7.87;;
37477;SDS011;23334;54.316;10.182;2023-03-13T04:22:02;32.37;;;7.83;;
37477;SDS011;23334;54.316;10.182;2023-03-13T04:24:27;25.33;;;7.30;;
37477;SDS011;23334;54.316;10.182;2023-03-13T04:26:53;20.10;;;6.10;;
37477;SDS011;23334;54.316;10.182;2023-03-13T04:29:18;20.47;;;6.13;;
37477;SDS011;23334;54.316;10.182;2023-03-13T04:31:44;29.80;;;7.50;;
37477;SDS011;23334;54.316;10.182;2023-03-13T04:34:10;23.80;;;6.90;;
37477;SDS011;23334;54.316;10.182;2023-03-13T04:36:35;27.03;;;6.50;;
37477;SDS011;23334;54.316;10.182;2023-03-13T04:39:01;21.73;;;7.40;;
37477;SDS011;23334;54.316;10.182;2023-03-13T04:41:26;19.93;;;8.00;;
37477;SDS011;23334;54.316;10.182;2023-03-13T04:43:52;28.27;;;7.03;;
37477;SDS011;23334;54.316;10.182;2023-03-13T04:46:18;23.67;;;7.90;;
37477;SDS011;23334;54.316;10.182;2023-03-13T04:48:43;20.67;;;6.83;;
37477;SDS011;23334;54.316;10.182;2023-03-13T04:51:10;24.10;;;7.40;;
37477;SDS011;23334;54.316;10.182;2023-03-13T04:53:36;20.90;;;7.57;;
37477;SDS011;23334;54.316;10.182;2023-03-13T04:56:03;25.27;;;7.13;;
37477;SDS011;23334;54.316;10.182;2023-03-13T04:58:29;26.13;;;7.50;;
37477;SDS011;23334;54.316;10.182;2023-03-13T05:00:55;22.83;;;8.60;;
37477;SDS011;23334;54.316;10.182;2023-03-13T05:03:21;19.10;;;6.77;;
37477;SDS011;23334;54.316;10.182;2023-03-13T05:05:47;32.47;;;9.00;;
37477;SDS011;23334;54.316;10.182;2023-03-13T05:08:13;23.33;;;7.80;;
37477;SDS011;23334;54.316;10.182;2023-03-13T05:10:40;17.73;;;6.83;;
37477;SDS011;23334;54.316;10.182;2023-03-13T05:13:06;21.27;;;6.73;;
37477;SDS011;23334;54.316;10.182;2023-03-13T05:15:32;33.67;;;8.80;;
37477;SDS011;23334;54.316;10.182;2023-03-13T05:17:58;12.07;;;7.10;;
37477;SDS011;23334;54.316;10.182;2023-03-13T05:20:23;16.07;;;6.73;;
37477;SDS011;23334;54.316;10.182;2023-03-13T05:22:49;23.77;;;8.00;;
37477;SDS011;23334;54.316;10.182;2023-03-13T05:25:16;16.47;;;7.07;;
37477;SDS011;23334;54.316;10.182;2023-03-13T05:27:42;25.13;;;9.20;;
37477;SDS011;23334;54.316;10.182;2023-03-13T05:30:09;18.57;;;6.83;;
37477;SDS011;23334;54.316;10.182;2023-03-13T05:32:35;19.13;;;8.63;;
37477;SDS011;23334;54.316;10.182;2023-03-13T05:35:01;20.73;;;6.90;;
37477;SDS011;23334;54.316;10.182;2023-03-13T05:37:27;22.63;;;6.70;;
37477;SDS011;23334;54.316;10.182;2023-03-13T05:39:53;16.30;;;6.77;;
37477;SDS011;23334;54.316;10.182;2023-03-13T05:42:19;16.53;;;7.27;;
37477;SDS011;23334;54.316;10.182;2023-03-13T05:44:45;17.73;;;6.73;;
37477;SDS011;23334;54.316;10.182;2023-03-13T05:47:12;15.93;;;6.30;;
37477;SDS011;23334;54.316;10.182;2023-03-13T05:49:38;18.43;;;6.20;;
37477;SDS011;23334;54.316;10.182;2023-03-13T05:52:04;16.63;;;6.07;;
37477;SDS011;23334;54.316;10.182;2023-03-13T05:54:30;11.47;;;5.87;;
37477;SDS011;23334;54.316;10.182;2023-03-13T05:56:56;16.93;;;5.70;;
37477;SDS011;23334;54.316;10.182;2023-03-13T05:59:23;12.30;;;5.67;;
37477;SDS011;23334;54.316;10.182;2023-03-13T06:01:48;17.83;;;6.40;;
37477;SDS011;23334;54.316;10.182;2023-03-13T06:04:14;10.90;;;4.90;;
37477;SDS011;23334;54.316;10.182;2023-03-13T06:06:39;13.87;;;4.90;;
37477;SDS011;23334;54.316;10.182;2023-03-13T06:09:05;10.63;;;5.03;;
37477;SDS011;23334;54.316;10.182;2023-03-13T06:11:30;12.90;;;4.50;;
37477;SDS011;23334;54.316;10.182;2023-03-13T06:13:56;13.80;;;4.73;;
37477;SDS011;23334;54.316;10.182;2023-03-13T06:16:22;7.93;;;4.70;;
37477;SDS011;23334;54.316;10.182;2023-03-13T06:18:47;10.80;;;4.70;;
37477;SDS011;23334;54.316;10.182;2023-03-13T06:21:13;12.00;;;4.23;;
37477;SDS011;23334;54.316;10.182;2023-03-13T06:23:39;6.30;;;4.30;;
37477;SDS011;23334;54.316;10.182;2023-03-13T06:26:06;8.77;;;3.10;;
37477;SDS011;23334;54.316;10.182;2023-03-13T06:28:31;7.30;;;3.80;;
37477;SDS011;23334;54.316;10.182;2023-03-13T06:31:00;6.43;;;3.80;;
37477;SDS011;23334;54.316;10.182;2023-03-13T06:33:27;5.00;;;2.80;;
37477;SDS011;23334;54.316;10.182;2023-03-13T06:35:53;9.97;;;3.23;;
37477;SDS011;23334;54.316;10.182;2023-03-13T06:38:18;4.00;;;3.47;;
37477;SDS011;23334;54.316;10.182;2023-03-13T06:40:44;6.80;;;2.77;;
37477;SDS011;23334;54.316;10.182;2023-03-13T06:43:10;6.03;;;2.77;;
37477;SDS011;23334;54.316;10.182;2023-03-13T06:45:35;6.10;;;2.33;;
37477;SDS011;23334;54.316;10.182;2023-03-13T06:48:03;8.27;;;2.27;;
37477;SDS011;23334;54.316;10.182;2023-03-13T06:50:29;4.27;;;2.47;;
37477;SDS011;23334;54.316;10.182;2023-03-13T06:52:55;7.27;;;2.40;;
37477;SDS011;23334;54.316;10.182;2023-03-13T06:55:21;7.33;;;2.37;;
37477;SDS011;23334;54.316;10.182;2023-03-13T06:57:50;8.83;;;2.13;;
37477;SDS011;23334;54.316;10.182;2023-03-13T07:00:16;3.67;;;2.03;;
37477;SDS011;23334;54.316;10.182;2023-03-13T07:02:42;2.13;;;2.03;;
37477;SDS011;23334;54.316;10.182;2023-03-13T07:05:08;7.03;;;2.53;;
37477;SDS011;23334;54.316;10.182;2023-03-13T07:07:34;7.53;;;2.50;;
37477;SDS011;23334;54.316;10.182;2023-03-13T07:10:00;4.07;;;2.20;;
37477;SDS011;23334;54.316;10.182;2023-03-13T07:12:25;4.33;;;2.00;;
37477;SDS011;23334;54.316;10.182;2023-03-13T07:14:51;3.43;;;1.90;;
37477;SDS011;23334;54.316;10.182;2023-03-13T07:17:17;5.67;;;2.37;;
37477;SDS011;23334;54.316;10.182;2023-03-13T07:19:43;2.23;;;2.03;;
37477;SDS011;23334;54.316;10.182;2023-03-13T07:22:09;2.67;;;2.43;;
37477;SDS011;23334;54.316;10.182;2023-03-13T07:24:34;2.20;;;2.00;;
37477;SDS011;23334;54.316;10.182;2023-03-13T07:27:00;3.20;;;2.60;;
37477;SDS011;23334;54.316;10.182;2023-03-13T07:29:26;2.27;;;2.10;;
37477;SDS011;23334;54.316;10.182;2023-03-13T07:31:52;1.50;;;1.40;;
37477;SDS011;23334;54.316;10.182;2023-03-13T07:34:17;3.40;;;1.87;;
37477;SDS011;23334;54.316;10.182;2023-03-13T07:36:43;1.83;;;1.70;;
37477;SDS011;23334;54.316;10.182;2023-03-13T07:39:09;2.37;;;2.10;;
37477;SDS011;23334;54.316;10.182;2023-03-13T07:41:34;2.47;;;2.20;;
37477;SDS011;23334;54.316;10.182;2023-03-13T07:44:00;3.90;;;1.90;;
37477;SDS011;23334;54.316;10.182;2023-03-13T07:46:28;4.37;;;2.90;;
37477;SDS011;23334;54.316;10.182;2023-03-13T07:48:53;3.43;;;2.80;;
37477;SDS011;23334;54.316;10.182;2023-03-13T07:51:21;5.80;;;2.57;;
37477;SDS011;23334;54.316;10.182;2023-03-13T07:53:49;5.03;;;3.03;;
37477;SDS011;23334;54.316;10.182;2023-03-13T07:56:16;3.17;;;2.97;;
37477;SDS011;23334;54.316;10.182;2023-03-13T07:58:46;6.10;;;3.20;;
37477;SDS011;23334;54.316;10.182;2023-03-13T08:01:13;3.73;;;3.10;;
37477;SDS011;23334;54.316;10.182;2023-03-13T08:03:42;3.00;;;2.80;;
37477;SDS011;23334;54.316;10.182;2023-03-13T08:06:09;5.70;;;3.13;;
37477;SDS011;23334;54.316;10.182;2023-03-13T08:08:38;3.00;;;2.80;;
37477;SDS011;23334;54.316;10.182;2023-03-13T08:11:05;3.83;;;2.63;;
37477;SDS011;23334;54.316;10.182;2023-03-13T08:13:36;3.00;;;2.70;;
37477;SDS011;23334;54.316;10.182;2023-03-13T08:16:10;3.87;;;3.03;;
37477;SDS011;23334;54.316;10.182;2023-03-13T08:18:40;4.10;;;3.03;;
37477;SDS011;23334;54.316;10.182;2023-03-13T08:21:09;2.83;;;2.63;;
37477;SDS011;23334;54.316;10.182;2023-03-13T08:23:36;3.77;;;2.60;;
37477;SDS011;23334;54.316;10.182;2023-03-13T08:26:06;2.87;;;2.40;;
37477;SDS011;23334;54.316;10.182;2023-03-13T08:28:35;2.83;;;2.10;;
37477;SDS011;23334;54.316;10.182;2023-03-13T08:33:41;1.83;;;1.60;;
37477;SDS011;23334;54.316;10.182;2023-03-13T08:36:18;3.03;;;1.60;;
37477;SDS011;23334;54.316;10.182;2023-03-13T08:38:47;1.83;;;1.73;;
37477;SDS011;23334;54.316;10.182;2023-03-13T08:41:13;6.20;;;1.90;;
37477;SDS011;23334;54.316;10.182;2023-03-13T08:43:44;1.90;;;1.70;;
37477;SDS011;23334;54.316;10.182;2023-03-13T08:46:11;2.53;;;2.03;;
37477;SDS011;23334;54.316;10.182;2023-03-13T08:48:37;1.77;;;1.67;;
37477;SDS011;23334;54.316;10.182;2023-03-13T08:51:03;1.63;;;1.53;;
37477;SDS011;23334;54.316;10.182;2023-03-13T08:53:31;3.60;;;1.70;;
37477;SDS011;23334;54.316;10.182;2023-03-13T08:55:57;1.30;;;1.20;;
37477;SDS011;23334;54.316;10.182;2023-03-13T08:58:24;2.30;;;1.90;;
37477;SDS011;23334;54.316;10.182;2023-03-13T09:00:49;3.10;;;1.53;;
37477;SDS011;23334;54.316;10.182;2023-03-13T09:03:15;2.00;;;1.20;;
37477;SDS011;23334;54.316;10.182;2023-03-13T09:05:41;1.30;;;1.20;;
37477;SDS011;23334;54.316;10.182;2023-03-13T09:08:07;1.40;;;1.30;;
37477;SDS011;23334;54.316;10.182;2023-03-13T09:10:33;1.50;;;1.40;;
37477;SDS011;23334;54.316;10.182;2023-03-13T09:13:00;1.50;;;1.30;;
37477;SDS011;23334;54.316;10.182;2023-03-13T09:15:26;1.43;;;1.23;;
37477;SDS011;23334;54.316;10.182;2023-03-13T09:17:52;1.63;;;1.53;;
37477;SDS011;23334;54.316;10.182;2023-03-13T09:20:17;7.00;;;1.37;;
37477;SDS011;23334;54.316;10.182;2023-03-13T09:22:43;1.20;;;1.10;;
37477;SDS011;23334;54.316;10.182;2023-03-13T09:25:10;1.30;;;1.20;;
37477;SDS011;23334;54.316;10.182;2023-03-13T09:27:36;1.20;;;1.10;;
37477;SDS011;23334;54.316;10.182;2023-03-13T09:30:02;1.10;;;1.00;;
37477;SDS011;23334;54.316;10.182;2023-03-13T09:32:31;1.30;;;1.20;;
37477;SDS011;23334;54.316;10.182;2023-03-13T09:35:00;1.00;;;1.00;;
37477;SDS011;23334;54.316;10.182;2023-03-13T09:37:27;1.20;;;1.10;;
37477;SDS011;23334;54.316;10.182;2023-03-13T09:39:53;1.33;;;1.23;;
37477;SDS011;23334;54.316;10.182;2023-03-13T09:42:21;0.80;;;0.80;;
37477;SDS011;23334;54.316;10.182;2023-03-13T09:45:35;1.07;;;0.97;;
37477;SDS011;23334;54.316;10.182;2023-03-13T09:48:31;1.20;;;1.10;;
37477;SDS011;23334;54.316;10.182;2023-03-13T09:51:20;1.77;;;1.03;;
37477;SDS011;23334;54.316;10.182;2023-03-13T09:59:52;1.70;;;0.87;;
37477;SDS011;23334;54.316;10.182;2023-03-13T10:02:32;0.97;;;0.90;;
37477;SDS011;23334;54.316;10.182;2023-03-13T10:05:02;1.00;;;0.90;;
37477;SDS011;23334;54.316;10.182;2023-03-13T10:07:37;1.30;;;1.07;;
37477;SDS011;23334;54.316;10.182;2023-03-13T10:10:03;1.20;;;1.07;;
37477;SDS011;23334;54.316;10.182;2023-03-13T10:12:37;1.00;;;0.70;;
37477;SDS011;23334;54.316;10.182;2023-03-13T10:18:13;1.20;;;0.90;;
37477;SDS011;23334;54.316;10.182;2023-03-13T10:20:46;1.33;;;1.03;;
37477;SDS011;23334;54.316;10.182;2023-03-13T10:23:15;0.80;;;0.80;;
37477;SDS011;23334;54.316;10.182;2023-03-13T10:25:45;1.73;;;1.40;;
37477;SDS011;23334;54.316;10.182;2023-03-13T10:28:12;1.87;;;1.60;;
37477;SDS011;23334;54.316;10.182;2023-03-13T10:30:42;5.00;;;1.70;;
37477;SDS011;23334;54.316;10.182;2023-03-13T10:33:21;1.60;;;1.50;;
37477;SDS011;23334;54.316;10.182;2023-03-13T10:38:35;2.60;;;1.50;;
37477;SDS011;23334;54.316;10.182;2023-03-13T10:41:32;1.37;;;1.23;;
37477;SDS011;23334;54.316;10.182;2023-03-13T10:44:12;3.07;;;1.70;;
37477;SDS011;23334;54.316;10.182;2023-03-13T10:46:42;5.20;;;1.60;;
37477;SDS011;23334;54.316;10.182;2023-03-13T10:49:12;1.50;;;1.30;;
37477;SDS011;23334;54.316;10.182;2023-03-13T10:51:44;2.87;;;1.57;;
37477;SDS011;23334;54.316;10.182;2023-03-13T10:54:13;10.48;;;2.53;;
37477;SDS011;23334;54.316;10.182;2023-03-13T10:56:45;2.07;;;1.30;;
37477;SDS011;23334;54.316;10.182;2023-03-13T10:59:29;1.73;;;1.40;;
37477;SDS011;23334;54.316;10.182;2023-03-13T11:02:03;3.93;;;1.23;;
37477;SDS011;23334;54.316;10.182;2023-03-13T11:04:52;2.87;;;1.20;;
37477;SDS011;23334;54.316;10.182;2023-03-13T11:07:25;2.07;;;1.30;;
37477;SDS011;23334;54.316;10.182;2023-03-13T11:12:47;2.50;;;1.13;;
37477;SDS011;23334;54.316;10.182;2023-03-13T11:15:16;4.00;;;1.27;;
37477;SDS011;23334;54.316;10.182;2023-03-13T11:20:39;3.47;;;1.47;;
37477;SDS011;23334;54.316;10.182;2023-03-13T11:23:10;1.70;;;1.60;;
37477;SDS011;23334;54.316;10.182;2023-03-13T11:26:09;2.77;;;1.20;;
37477;SDS011;23334;54.316;10.182;2023-03-13T11:28:51;1.30;;;1.20;;
37477;SDS011;23334;54.316;10.182;2023-03-13T11:31:45;1.30;;;1.00;;
37477;SDS011;23334;54.316;10.182;2023-03-13T11:34:20;1.53;;;1.40;;
37477;SDS011;23334;54.316;10.182;2023-03-13T11:51:11;1.33;;;0.90;;
37477;SDS011;23334;54.316;10.182;2023-03-13T11:56:56;1.57;;;0.97;;
37477;SDS011;23334;54.316;10.182;2023-03-13T11:59:39;4.90;;;1.00;;
37477;SDS011;23334;54.316;10.182;2023-03-13T12:02:32;2.40;;;1.23;;
37477;SDS011;23334;54.316;10.182;2023-03-13T12:05:05;6.83;;;1.10;;
37477;SDS011;23334;54.316;10.182;2023-03-13T12:10:22;7.30;;;0.90;;
37477;SDS011;23334;54.316;10.182;2023-03-13T12:13:04;2.17;;;1.00;;
37477;SDS011;23334;54.316;10.182;2023-03-13T12:15:55;3.13;;;1.00;;
37477;SDS011;23334;54.316;10.182;2023-03-13T12:18:40;7.60;;;1.63;;
37477;SDS011;23334;54.316;10.182;2023-03-13T12:23:46;3.73;;;1.30;;
37477;SDS011;23334;54.316;10.182;2023-03-13T12:26:23;8.23;;;2.00;;
37477;SDS011;23334;54.316;10.182;2023-03-13T12:29:22;3.90;;;0.97;;
37477;SDS011;23334;54.316;10.182;2023-03-13T12:31:58;2.97;;;1.77;;
37477;SDS011;23334;54.316;10.182;2023-03-13T12:37:38;5.67;;;2.10;;
37477;SDS011;23334;54.316;10.182;2023-03-13T12:40:20;2.13;;;1.17;;
37477;SDS011;23334;54.316;10.182;2023-03-13T12:43:01;2.70;;;1.73;;
37477;SDS011;23334;54.316;10.182;2023-03-13T12:45:37;7.93;;;1.53;;
37477;SDS011;23334;54.316;10.182;2023-03-13T12:54:10;6.07;;;1.40;;
37477;SDS011;23334;54.316;10.182;2023-03-13T12:56:53;7.50;;;1.47;;
37477;SDS011;23334;54.316;10.182;2023-03-13T13:00:06;3.70;;;1.70;;
37477;SDS011;23334;54.316;10.182;2023-03-13T13:02:24;5.53;;;2.13;;
37477;SDS011;23334;54.316;10.182;2023-03-13T13:04:52;5.73;;;1.70;;
37477;SDS011;23334;54.316;10.182;2023-03-13T13:07:25;6.57;;;1.80;;
37477;SDS011;23334;54.316;10.182;2023-03-13T13:09:59;11.20;;;2.03;;
37477;SDS011;23334;54.316;10.182;2023-03-13T13:12:35;4.37;;;1.23;;
37477;SDS011;23334;54.316;10.182;2023-03-13T13:17:58;3.33;;;1.27;;
37477;SDS011;23334;54.316;10.182;2023-03-13T13:20:47;7.73;;;1.60;;
37477;SDS011;23334;54.316;10.182;2023-03-13T13:23:34;4.57;;;1.60;;
37477;SDS011;23334;54.316;10.182;2023-03-13T13:29:50;5.30;;;1.37;;
37477;SDS011;23334;54.316;10.182;2023-03-13T13:37:41;10.77;;;2.63;;
37477;SDS011;23334;54.316;10.182;2023-03-13T13:39:50;13.47;;;2.17;;
37477;SDS011;23334;54.316;10.182;2023-03-13T13:45:02;8.87;;;1.90;;
37477;SDS011;23334;54.316;10.182;2023-03-13T13:47:46;4.93;;;1.70;;
37477;SDS011;23334;54.316;10.182;2023-03-13T13:50:17;6.10;;;2.10;;
37477;SDS011;23334;54.316;10.182;2023-03-13T13:52:43;5.03;;;1.63;;
37477;SDS011;23334;54.316;10.182;2023-03-13T13:58:10;10.57;;;2.10;;
37477;SDS011;23334;54.316;10.182;2023-03-13T14:03:24;6.50;;;1.60;;
37477;SDS011;23334;54.316;10.182;2023-03-13T14:06:38;7.70;;;2.03;;
37477;SDS011;23334;54.316;10.182;2023-03-13T14:08:51;8.97;;;2.30;;
37477;SDS011;23334;54.316;10.182;2023-03-13T14:11:25;5.70;;;2.30;;
37477;SDS011;23334;54.316;10.182;2023-03-13T14:14:09;7.73;;;1.93;;
37477;SDS011;23334;54.316;10.182;2023-03-13T14:16:43;9.53;;;1.47;;
37477;SDS011;23334;54.316;10.182;2023-03-13T14:19:24;8.77;;;1.83;;
37477;SDS011;23334;54.316;10.182;2023-03-13T14:22:12;5.63;;;2.00;;
37477;SDS011;23334;54.316;10.182;2023-03-13T14:24:38;3.13;;;1.40;;
37477;SDS011;23334;54.316;10.182;2023-03-13T14:27:15;8.70;;;1.90;;
37477;SDS011;23334;54.316;10.182;2023-03-13T14:29:58;2.50;;;1.37;;
37477;SDS011;23334;54.316;10.182;2023-03-13T14:32:25;2.53;;;1.53;;
37477;SDS011;23334;54.316;10.182;2023-03-13T14:34:50;4.60;;;1.90;;
37477;SDS011;23334;54.316;10.182;2023-03-13T14:40:09;2.67;;;1.50;;
37477;SDS011;23334;54.316;10.182;2023-03-13T14:42:47;8.33;;;1.57;;
37477;SDS011;23334;54.316;10.182;2023-03-13T14:45:17;9.17;;;1.80;;
37477;SDS011;23334;54.316;10.182;2023-03-13T14:47:51;3.90;;;1.23;;
37477;SDS011;23334;54.316;10.182;2023-03-13T14:50:18;4.40;;;1.37;;
37477;SDS011;23334;54.316;10.182;2023-03-13T14:52:48;6.00;;;1.60;;
37477;SDS011;23334;54.316;10.182;2023-03-13T14:57:55;3.43;;;1.70;;
37477;SDS011;23334;54.316;10.182;2023-03-13T15:00:39;1.60;;;1.50;;
37477;SDS011;23334;54.316;10.182;2023-03-13T15:05:46;5.27;;;1.67;;
37477;SDS011;23334;54.316;10.182;2023-03-13T15:08:15;5.20;;;1.83;;
37477;SDS011;23334;54.316;10.182;2023-03-13T15:10:43;2.23;;;1.50;;
37477;SDS011;23334;54.316;10.182;2023-03-13T15:13:16;4.50;;;2.03;;
37477;SDS011;23334;54.316;10.182;2023-03-13T15:15:48;2.37;;;1.20;;
37477;SDS011;23334;54.316;10.182;2023-03-13T15:18:21;4.20;;;1.90;;
37477;SDS011;23334;54.316;10.182;2023-03-13T15:20:52;10.77;;;1.70;;
37477;SDS011;23334;54.316;10.182;2023-03-13T15:23:22;1.80;;;1.33;;
37477;SDS011;23334;54.316;10.182;2023-03-13T15:25:48;3.23;;;1.60;;
37477;SDS011;23334;54.316;10.182;2023-03-13T15:28:15;6.10;;;2.27;;
37477;SDS011;23334;54.316;10.182;2023-03-13T15:30:43;7.40;;;1.50;;
37477;SDS011;23334;54.316;10.182;2023-03-13T15:33:12;5.90;;;1.90;;
37477;SDS011;23334;54.316;10.182;2023-03-13T15:35:39;6.30;;;2.63;;
37477;SDS011;23334;54.316;10.182;2023-03-13T15:38:05;10.83;;;1.93;;
37477;SDS011;23334;54.316;10.182;2023-03-13T15:40:37;11.47;;;1.80;;
37477;SDS011;23334;54.316;10.182;2023-03-13T15:43:02;6.80;;;1.90;;
37477;SDS011;23334;54.316;10.182;2023-03-13T15:45:28;5.87;;;1.53;;
37477;SDS011;23334;54.316;10.182;2023-03-13T15:47:54;7.50;;;2.30;;
37477;SDS011;23334;54.316;10.182;2023-03-13T15:50:20;13.23;;;2.30;;
37477;SDS011;23334;54.316;10.182;2023-03-13T15:52:53;8.60;;;1.60;;
37477;SDS011;23334;54.316;10.182;2023-03-13T15:55:19;6.20;;;2.00;;
37477;SDS011;23334;54.316;10.182;2023-03-13T15:57:45;6.80;;;2.13;;
37477;SDS011;23334;54.316;10.182;2023-03-13T16:00:23;5.13;;;2.10;;
37477;SDS011;23334;54.316;10.182;2023-03-13T16:02:50;7.00;;;2.53;;
37477;SDS011;23334;54.316;10.182;2023-03-13T16:05:15;3.63;;;1.40;;
37477;SDS011;23334;54.316;10.182;2023-03-13T16:07:43;5.40;;;2.30;;